createdAt,value
2018-07-17T00:01:17.248Z,7.67
2018-07-17T00:03:51.573Z,7.33
2018-07-17T00:06:26.021Z,10.00
2018-07-17T00:08:58.560Z,7.67
2018-07-17T00:11:31.159Z,7.67
2018-07-17T00:14:03.140Z,10.00
2018-07-17T00:16:34.359Z,9.00
2018-07-17T00:19:06.609Z,10.00
2018-07-17T00:21:37.791Z,10.00
2018-07-17T00:24:20.509Z,9.33
2018-07-17T00:26:57.592Z,9.00
2018-07-17T00:29:30.190Z,8.33
2018-07-17T00:32:02.857Z,9.50
2018-07-17T00:34:35.950Z,10.00
2018-07-17T00:37:07.652Z,11.00
2018-07-17T00:39:39.355Z,10.00
2018-07-17T00:42:14.640Z,10.00
2018-07-17T00:44:46.697Z,8.67
2018-07-17T00:47:19.157Z,8.33
2018-07-17T00:49:54.353Z,10.33
2018-07-17T00:52:27.876Z,10.00
2018-07-17T00:55:00.209Z,9.33
2018-07-17T00:57:32.495Z,10.00
2018-07-17T01:00:09.258Z,11.00
2018-07-17T01:02:45.724Z,8.33
2018-07-17T01:05:23.095Z,9.20
2018-07-17T01:08:00.654Z,11.00
2018-07-17T01:10:37.051Z,8.33
2018-07-17T01:13:12.591Z,9.00
2018-07-17T01:15:44.983Z,7.00
2018-07-17T01:18:18.466Z,10.00
2018-07-17T01:20:50.499Z,10.50
2018-07-17T01:23:21.992Z,10.00
2018-07-17T01:25:54.702Z,10.33
2018-07-17T01:28:27.510Z,10.00
2018-07-17T01:30:58.745Z,9.33
2018-07-17T01:33:29.917Z,10.00
2018-07-17T01:36:01.622Z,10.33
2018-07-17T01:38:32.961Z,10.00
2018-07-17T01:41:05.768Z,10.67
2018-07-17T01:43:37.083Z,10.00
2018-07-17T01:46:08.274Z,9.33
2018-07-17T01:48:39.978Z,9.00
2018-07-17T01:51:11.220Z,10.00
2018-07-17T01:53:42.399Z,9.00
2018-07-17T01:56:13.885Z,10.00
2018-07-17T01:58:44.150Z,11.00
2018-07-17T02:02:22.418Z,10.00
2018-07-17T02:04:53.884Z,10.00
2018-07-17T02:07:28.505Z,11.00
2018-07-17T02:10:00.151Z,9.67
2018-07-17T02:12:31.715Z,11.33
2018-07-17T02:15:06.370Z,13.00
2018-07-17T02:17:37.568Z,10.33
2018-07-17T02:20:09.185Z,8.00
2018-07-17T02:22:40.817Z,10.33
2018-07-17T02:25:12.574Z,10.00
2018-07-17T02:27:44.247Z,10.00
2018-07-17T02:30:16.272Z,9.33
2018-07-17T02:32:48.730Z,11.00
2018-07-17T02:35:21.642Z,11.00
2018-07-17T02:37:54.005Z,11.67
2018-07-17T02:40:26.110Z,10.67
2018-07-17T02:42:58.368Z,10.00
2018-07-17T02:45:29.539Z,10.00
2018-07-17T02:48:02.016Z,9.33
2018-07-17T02:50:33.541Z,10.00
2018-07-17T02:53:05.765Z,11.00
2018-07-17T02:55:42.217Z,10.33
2018-07-17T02:58:16.965Z,13.00
2018-07-17T03:00:49.062Z,9.67
2018-07-17T03:03:21.445Z,12.00
2018-07-17T03:05:53.649Z,11.00
2018-07-17T03:08:24.982Z,11.33
2018-07-17T03:10:56.162Z,10.00
2018-07-17T03:13:28.247Z,12.33
2018-07-17T03:15:59.428Z,10.00
2018-07-17T03:18:31.536Z,9.00
2018-07-17T03:21:01.868Z,10.00
2018-07-17T03:23:33.081Z,10.00
2018-07-17T03:26:03.825Z,10.67
2018-07-17T03:28:34.953Z,9.00
2018-07-17T03:31:06.165Z,10.33
2018-07-17T03:33:37.706Z,10.33
2018-07-17T03:36:10.683Z,10.00
2018-07-17T03:38:40.981Z,9.67
2018-07-17T03:41:14.885Z,9.67
2018-07-17T03:43:47.197Z,10.00
2018-07-17T03:46:18.548Z,10.00
2018-07-17T03:48:50.610Z,10.67
2018-07-17T03:51:22.501Z,10.00
2018-07-17T03:53:53.117Z,12.00
2018-07-17T03:56:23.700Z,12.00
2018-07-17T03:58:55.809Z,13.00
2018-07-17T04:01:27.333Z,11.67
2018-07-17T04:03:58.540Z,10.00
2018-07-17T04:06:31.022Z,10.33
2018-07-17T04:09:08.090Z,9.00
2018-07-17T04:11:39.724Z,11.67
2018-07-17T04:14:12.649Z,9.67
2018-07-17T04:16:50.965Z,10.67
2018-07-17T04:19:24.481Z,10.67
2018-07-17T04:21:57.224Z,11.33
2018-07-17T04:24:28.456Z,10.67
2018-07-17T04:26:59.784Z,10.00
2018-07-17T04:29:30.985Z,11.33
2018-07-17T04:32:02.478Z,11.00
2018-07-17T04:34:33.451Z,11.00
2018-07-17T04:37:06.619Z,11.00
2018-07-17T04:39:40.561Z,10.00
2018-07-17T04:42:10.869Z,11.00
2018-07-17T04:44:49.232Z,10.67
2018-07-17T04:47:21.657Z,11.00
2018-07-17T04:49:54.199Z,11.00
2018-07-17T04:52:31.032Z,12.33
2018-07-17T04:55:03.639Z,12.67
2018-07-17T04:57:35.815Z,11.00
2018-07-17T05:00:11.211Z,13.00
2018-07-17T05:02:47.205Z,12.00
2018-07-17T05:05:19.696Z,10.67
2018-07-17T05:07:51.813Z,12.33
2018-07-17T05:10:23.977Z,11.67
2018-07-17T05:13:00.578Z,11.67
2018-07-17T05:15:34.312Z,13.00
2018-07-17T05:18:06.908Z,11.00
2018-07-17T05:20:39.930Z,12.33
2018-07-17T05:23:13.475Z,12.33
2018-07-17T05:25:45.493Z,10.67
2018-07-17T05:28:16.224Z,12.00
2018-07-17T05:30:50.911Z,10.00
2018-07-17T05:33:24.010Z,13.00
2018-07-17T05:35:59.043Z,12.00
2018-07-17T05:38:31.196Z,13.33
2018-07-17T05:41:03.407Z,13.00
2018-07-17T05:43:34.693Z,12.00
2018-07-17T05:46:06.372Z,12.33
2018-07-17T05:49:00.157Z,12.00
2018-07-17T05:51:32.670Z,12.00
2018-07-17T05:54:05.162Z,13.33
2018-07-17T05:56:35.771Z,13.33
2018-07-17T05:59:06.096Z,12.00
2018-07-17T06:01:36.868Z,13.33
2018-07-17T06:04:07.077Z,15.33
2018-07-17T06:06:39.881Z,14.00
2018-07-17T06:09:11.251Z,14.00
2018-07-17T06:11:42.552Z,16.00
2018-07-17T06:14:13.884Z,13.33
2018-07-17T06:16:44.177Z,14.33
2018-07-17T06:19:17.721Z,15.67
2018-07-17T06:21:48.805Z,14.00
2018-07-17T06:24:19.958Z,14.33
2018-07-17T06:27:03.631Z,13.00
2018-07-17T06:29:34.097Z,14.00
2018-07-17T06:32:05.474Z,14.00
2018-07-17T06:34:35.804Z,14.33
2018-07-17T06:37:09.496Z,16.00
2018-07-17T06:39:41.016Z,15.00
2018-07-17T06:42:12.442Z,15.00
2018-07-17T06:44:42.898Z,15.67
2018-07-17T06:47:13.988Z,14.67
2018-07-17T06:49:48.080Z,15.33
2018-07-17T06:52:21.585Z,16.00
2018-07-17T06:54:58.464Z,17.67
2018-07-17T06:57:36.214Z,15.00
2018-07-17T07:00:10.867Z,14.67
2018-07-17T07:02:42.659Z,14.67
2018-07-17T07:05:13.252Z,15.33
2018-07-17T07:07:50.121Z,17.67
2018-07-17T07:10:21.349Z,14.00
2018-07-17T07:12:55.028Z,18.00
2018-07-17T07:15:26.317Z,16.33
2018-07-17T07:17:59.755Z,15.00
2018-07-17T07:20:30.375Z,15.00
2018-07-17T07:23:00.729Z,14.00
2018-07-17T07:25:32.253Z,14.33
2018-07-17T07:28:06.491Z,15.67
2018-07-17T07:30:36.881Z,15.67
2018-07-17T07:33:11.042Z,15.67
2018-07-17T07:35:42.511Z,16.67
2018-07-17T07:38:13.680Z,16.00
2018-07-17T07:40:45.217Z,15.00
2018-07-17T07:43:16.788Z,14.67
2018-07-17T07:45:48.084Z,15.00
2018-07-17T07:48:20.641Z,15.33
2018-07-17T07:50:55.135Z,15.33
2018-07-17T07:53:28.677Z,13.33
2018-07-17T07:56:02.586Z,13.33
2018-07-17T07:58:37.349Z,12.00
2018-07-17T08:01:09.109Z,12.00
2018-07-17T08:03:43.485Z,12.00
2018-07-17T08:06:14.806Z,12.33
2018-07-17T08:08:47.228Z,12.00
2018-07-17T08:11:36.058Z,12.33
2018-07-17T08:14:08.917Z,10.33
2018-07-17T08:16:40.555Z,10.67
2018-07-17T08:22:12.275Z,12.00
2018-07-17T08:24:45.438Z,12.00
2018-07-17T08:27:18.837Z,13.00
2018-07-17T08:29:54.799Z,14.00
2018-07-17T08:32:29.188Z,13.00
2018-07-17T08:35:10.061Z,11.00
2018-07-17T08:37:41.421Z,12.33
2018-07-17T08:40:13.943Z,13.00
2018-07-17T08:42:55.944Z,13.67
2018-07-17T08:45:30.821Z,12.00
2018-07-17T08:48:04.749Z,12.00
2018-07-17T08:50:37.864Z,13.67
2018-07-17T08:53:15.536Z,12.00
2018-07-17T08:55:50.729Z,13.67
2018-07-17T08:58:23.335Z,11.67
2018-07-17T09:00:54.745Z,13.00
2018-07-17T09:03:32.541Z,12.33
2018-07-17T09:06:05.535Z,11.67
2018-07-17T09:08:39.232Z,12.33
2018-07-17T09:11:11.409Z,12.00
2018-07-17T09:13:43.908Z,12.00
2018-07-17T09:18:54.979Z,11.67
2018-07-17T09:21:26.285Z,10.00
2018-07-17T09:24:00.560Z,11.00
2018-07-17T09:26:33.240Z,11.33
2018-07-17T09:29:06.352Z,11.67
2018-07-17T09:31:39.351Z,11.67
2018-07-17T09:34:12.798Z,10.67
2018-07-17T09:36:45.827Z,11.00
2018-07-17T09:39:17.097Z,10.67
2018-07-17T09:41:49.235Z,9.33
2018-07-17T09:44:24.017Z,10.33
2018-07-17T09:46:59.788Z,11.00
2018-07-17T09:49:31.840Z,10.00
2018-07-17T09:52:05.609Z,10.00
2018-07-17T09:54:38.532Z,9.33
2018-07-17T09:57:15.345Z,9.67
2018-07-17T09:59:48.370Z,9.67
2018-07-17T10:02:26.211Z,8.00
2018-07-17T10:05:00.886Z,8.00
2018-07-17T10:07:36.603Z,10.00
2018-07-17T10:10:15.425Z,9.00
2018-07-17T10:12:51.355Z,10.00
2018-07-17T10:15:26.063Z,7.75
2018-07-17T10:18:00.020Z,8.00
2018-07-17T10:20:32.583Z,9.00
2018-07-17T10:23:10.096Z,9.00
2018-07-17T10:25:42.691Z,8.75
2018-07-17T10:28:15.757Z,8.25
2018-07-17T10:30:49.454Z,8.00
2018-07-17T10:33:22.423Z,7.20
2018-07-17T10:35:55.059Z,8.50
2018-07-17T10:38:33.010Z,10.00
2018-07-17T10:41:06.578Z,9.00
2018-07-17T10:43:39.535Z,10.00
2018-07-17T10:46:11.241Z,10.00
2018-07-17T10:48:45.787Z,8.00
2018-07-17T10:51:19.057Z,11.00
2018-07-17T10:53:57.623Z,9.33
2018-07-17T10:56:30.557Z,7.80
2018-07-17T10:59:09.665Z,8.00
2018-07-17T11:01:44.631Z,7.00
2018-07-17T11:04:22.497Z,6.40
2018-07-17T11:07:07.333Z,8.00
2018-07-17T11:09:45.653Z,7.00
2018-07-17T11:12:23.593Z,8.00
2018-07-17T11:14:57.873Z,7.00
2018-07-17T11:17:33.112Z,6.40
2018-07-17T11:20:05.400Z,7.33
2018-07-17T11:22:51.468Z,6.00
2018-07-17T11:25:25.074Z,7.20
2018-07-17T11:27:58.427Z,7.00
2018-07-17T11:30:54.705Z,9.33
2018-07-17T11:33:29.938Z,6.67
2018-07-17T11:36:19.186Z,8.00
2018-07-17T11:38:53.372Z,8.75
2018-07-17T11:41:26.521Z,7.67
2018-07-17T11:43:58.276Z,8.00
2018-07-17T11:46:32.828Z,7.00
2018-07-17T11:49:11.368Z,6.57
2018-07-17T11:51:43.580Z,8.00
2018-07-17T11:54:16.517Z,7.67
2018-07-17T11:56:49.294Z,7.00
2018-07-17T11:59:22.571Z,8.00
2018-07-17T12:01:58.324Z,9.33
2018-07-17T12:04:32.165Z,8.00
2018-07-17T12:07:03.978Z,8.00
2018-07-17T12:09:38.620Z,8.00
2018-07-17T12:12:10.709Z,9.75
2018-07-17T12:14:44.401Z,9.00
2018-07-17T12:17:19.633Z,8.67
2018-07-17T12:19:53.350Z,9.75
2018-07-17T12:22:29.951Z,7.00
2018-07-17T12:25:03.289Z,8.00
2018-07-17T12:27:38.805Z,8.00
2018-07-17T12:30:14.617Z,7.80
2018-07-17T12:32:50.489Z,8.86
2018-07-17T12:35:22.453Z,7.00
2018-07-17T12:38:01.667Z,7.00
2018-07-17T12:44:33.464Z,7.33
2018-07-17T12:47:05.739Z,7.60
2018-07-17T12:49:41.233Z,7.00
2018-07-17T12:52:13.896Z,7.00
2018-07-17T12:54:47.316Z,7.00
2018-07-17T12:57:19.312Z,7.33
2018-07-17T12:59:52.776Z,7.60
2018-07-17T13:02:25.083Z,7.75
2018-07-17T13:04:56.323Z,9.00
2018-07-17T13:07:30.443Z,9.33
2018-07-17T13:10:06.381Z,9.00
2018-07-17T13:12:46.336Z,8.00
2018-07-17T13:15:19.227Z,9.00
2018-07-17T13:17:53.858Z,8.67
2018-07-17T13:20:26.634Z,9.00
2018-07-17T13:22:58.659Z,10.00
2018-07-17T13:25:31.884Z,8.00
2018-07-17T13:28:06.916Z,9.33
2018-07-17T13:30:38.248Z,8.33
2018-07-17T13:33:16.130Z,8.50
2018-07-17T13:35:47.487Z,9.00
2018-07-17T13:38:20.568Z,9.00
2018-07-17T13:41:07.793Z,8.25
2018-07-17T13:43:39.958Z,8.33
2018-07-17T13:46:17.279Z,8.00
2018-07-17T13:48:52.211Z,8.67
2018-07-17T13:51:24.792Z,9.67
2018-07-17T13:53:57.675Z,7.75
2018-07-17T13:56:40.327Z,10.33
2018-07-17T13:59:13.835Z,8.00
2018-07-17T14:01:46.050Z,10.00
2018-07-17T14:04:18.001Z,8.33
2018-07-17T14:06:50.566Z,9.67
2018-07-17T14:09:23.594Z,8.25
2018-07-17T14:11:55.669Z,8.60
2018-07-17T14:14:26.966Z,9.67
2018-07-17T14:17:00.274Z,9.00
2018-07-17T14:19:32.372Z,10.00
2018-07-17T14:22:04.553Z,8.67
2018-07-17T14:24:39.424Z,10.00
2018-07-17T14:27:12.352Z,8.33
2018-07-17T14:29:46.010Z,9.00
2018-07-17T14:35:18.877Z,8.33
2018-07-17T14:37:50.758Z,9.67
2018-07-17T14:40:25.301Z,9.75
2018-07-17T14:43:03.626Z,10.00
2018-07-17T14:45:37.754Z,9.67
2018-07-17T14:48:13.874Z,8.00
2018-07-17T14:50:47.933Z,7.67
2018-07-17T14:53:53.511Z,9.00
2018-07-17T14:56:27.418Z,9.00
2018-07-17T14:58:59.516Z,9.75
2018-07-17T15:01:31.488Z,8.00
2018-07-17T15:04:03.601Z,7.00
2018-07-17T15:06:36.914Z,8.00
2018-07-17T15:09:11.390Z,7.67
2018-07-17T15:11:43.263Z,6.67
2018-07-17T15:14:28.596Z,8.00
2018-07-17T15:17:26.795Z,7.40
2018-07-17T15:20:06.077Z,8.00
2018-07-17T15:22:45.641Z,8.33
2018-07-17T15:25:19.277Z,6.75
2018-07-17T15:27:53.771Z,8.00
2018-07-17T15:30:33.077Z,8.00
2018-07-17T15:33:12.584Z,9.25
2018-07-17T15:35:45.874Z,7.67
2018-07-17T15:38:24.555Z,8.00
2018-07-17T15:41:04.156Z,8.25
2018-07-17T15:43:40.724Z,8.67
2018-07-17T15:46:14.652Z,7.50
2018-07-17T15:48:57.980Z,10.00
2018-07-17T15:54:16.506Z,6.33
2018-07-17T15:56:51.747Z,6.67
2018-07-17T15:59:30.010Z,7.25
2018-07-17T16:04:47.581Z,7.67
2018-07-17T16:07:59.217Z,7.00
2018-07-17T16:10:40.343Z,6.40
2018-07-17T16:13:20.302Z,6.00
2018-07-17T16:16:02.522Z,6.86
2018-07-17T16:18:40.830Z,4.67
2018-07-17T16:21:16.703Z,5.67
2018-07-17T16:24:21.283Z,6.00
2018-07-17T16:29:11.919Z,6.00
2018-07-17T16:31:52.766Z,7.00
2018-07-17T16:34:28.673Z,8.40
2018-07-17T16:37:03.490Z,8.00
2018-07-17T16:39:36.331Z,7.60
2018-07-17T16:45:04.187Z,8.00
2018-07-17T16:53:45.589Z,7.00
2018-07-17T16:56:33.415Z,7.00
2018-07-17T16:59:12.104Z,7.00
2018-07-17T17:04:52.891Z,6.60
2018-07-17T17:07:29.326Z,6.20
2018-07-17T17:10:01.795Z,6.60
2018-07-17T17:12:41.573Z,6.00
2018-07-17T17:15:21.463Z,6.86
2018-07-17T17:17:59.294Z,6.14
2018-07-17T17:20:33.272Z,5.17
2018-07-17T17:23:07.803Z,5.50
2018-07-17T17:25:40.992Z,5.83
2018-07-17T17:28:15.424Z,5.17
2018-07-17T17:30:51.270Z,5.40
2018-07-17T17:33:27.683Z,4.67
2018-07-17T17:39:11.812Z,4.33
2018-07-17T17:41:47.253Z,5.33
2018-07-17T17:44:22.377Z,4.17
2018-07-17T17:46:59.353Z,4.67
2018-07-17T17:49:36.498Z,4.50
2018-07-17T17:52:11.147Z,4.67
2018-07-17T17:54:45.722Z,3.50
2018-07-17T17:57:23.412Z,3.33
2018-07-17T17:59:56.469Z,3.00
2018-07-17T18:02:31.656Z,2.50
2018-07-17T18:05:10.265Z,3.00
2018-07-17T18:07:48.174Z,3.50
2018-07-17T18:10:24.433Z,3.17
2018-07-17T18:13:00.766Z,3.00
2018-07-17T18:15:37.127Z,3.17
2018-07-17T18:18:13.128Z,3.67
2018-07-17T18:20:52.052Z,3.33
2018-07-17T18:23:27.903Z,3.33
2018-07-17T18:26:02.551Z,5.17
2018-07-17T18:28:37.797Z,4.83
2018-07-17T18:31:11.119Z,5.17
2018-07-17T18:33:42.393Z,5.00
2018-07-17T18:36:15.390Z,4.50
2018-07-17T18:38:49.450Z,4.83
2018-07-17T18:41:22.544Z,4.33
2018-07-17T18:44:13.628Z,4.83
2018-07-17T18:46:51.243Z,5.00
2018-07-17T18:49:38.282Z,5.33
2018-07-17T18:58:55.734Z,5.00
2018-07-17T19:01:33.046Z,5.00
2018-07-17T19:04:09.032Z,5.00
2018-07-17T19:09:18.865Z,5.00
2018-07-17T19:17:17.011Z,5.67
2018-07-17T19:19:52.275Z,5.57
2018-07-17T19:22:38.406Z,5.17
2018-07-17T19:25:27.250Z,5.00
2018-07-17T19:28:10.574Z,5.67
2018-07-17T19:31:09.271Z,5.83
2018-07-17T19:33:47.569Z,5.00
2018-07-17T19:36:27.724Z,4.83
2018-07-17T19:39:03.228Z,5.17
2018-07-17T19:41:39.683Z,5.83
2018-07-17T19:44:18.445Z,5.86
2018-07-17T19:46:52.473Z,5.67
2018-07-17T19:49:31.698Z,5.33
2018-07-17T19:52:06.361Z,7.00
2018-07-17T19:54:48.595Z,7.00
2018-07-17T19:57:47.352Z,6.75
2018-07-17T20:00:36.604Z,6.43
2018-07-17T20:03:28.896Z,6.80
2018-07-17T20:06:05.202Z,7.00
2018-07-17T20:08:40.946Z,6.33
2018-07-17T20:11:31.594Z,10.00
2018-07-17T20:14:06.358Z,5.67
2018-07-17T20:16:40.302Z,5.00
2018-07-17T20:21:58.635Z,4.80
2018-07-17T20:24:36.270Z,5.86
2018-07-17T20:27:15.439Z,6.00
2018-07-17T20:29:49.853Z,5.71
2018-07-17T20:32:24.443Z,5.00
2018-07-17T20:35:03.472Z,5.00
2018-07-17T20:37:45.102Z,5.33
2018-07-17T20:40:19.070Z,4.83
2018-07-17T20:42:56.831Z,5.43
2018-07-17T20:45:37.484Z,4.00
2018-07-17T20:48:17.475Z,5.00
2018-07-17T20:50:59.457Z,5.00
2018-07-17T20:55:47.520Z,4.17
2018-07-17T20:58:23.358Z,4.17
2018-07-17T21:01:02.494Z,4.00
2018-07-17T21:03:37.687Z,4.00
2018-07-17T21:06:14.539Z,4.00
2018-07-17T21:08:52.190Z,4.17
2018-07-17T21:11:28.433Z,4.17
2018-07-17T21:14:02.576Z,4.00
2018-07-17T21:16:44.265Z,3.50
2018-07-17T21:19:20.272Z,3.83
2018-07-17T21:21:59.645Z,4.00
2018-07-17T21:24:41.337Z,4.00
2018-07-17T21:27:35.323Z,5.00
2018-07-17T21:30:29.754Z,4.83
2018-07-17T21:33:10.251Z,6.86
2018-07-17T21:35:48.835Z,4.83
2018-07-17T21:38:28.187Z,5.00
2018-07-17T21:51:28.301Z,6.67
2018-07-17T21:54:08.258Z,5.43
2018-07-17T21:56:57.417Z,5.43
2018-07-17T21:59:30.634Z,3.83
2018-07-17T22:02:06.648Z,4.00
2018-07-17T22:04:50.351Z,4.67
2018-07-17T22:07:43.691Z,4.67
2018-07-17T22:10:18.471Z,4.20
2018-07-17T22:12:59.266Z,3.83
2018-07-17T22:15:50.485Z,5.17
2018-07-17T22:18:34.371Z,4.00
2018-07-17T22:21:21.452Z,3.80
2018-07-17T22:24:04.641Z,4.00
2018-07-17T22:26:38.621Z,4.00
2018-07-17T22:29:22.241Z,4.17
2018-07-17T22:31:59.645Z,4.33
2018-07-17T22:34:41.266Z,5.00
2018-07-17T22:37:19.802Z,5.00
2018-07-17T22:39:55.108Z,4.00
2018-07-17T22:42:29.608Z,4.83
2018-07-17T22:45:08.655Z,4.33
2018-07-17T22:47:42.360Z,3.50
2018-07-17T22:50:20.369Z,4.00
2018-07-17T22:52:54.303Z,5.67
2018-07-17T22:55:30.090Z,5.00
2018-07-17T22:58:04.287Z,4.17
2018-07-17T23:00:39.115Z,4.33
2018-07-17T23:03:12.220Z,4.50
2018-07-17T23:05:46.992Z,5.17
2018-07-17T23:08:23.758Z,5.00
2018-07-17T23:10:59.194Z,5.17
2018-07-17T23:13:32.461Z,5.00
2018-07-17T23:16:09.262Z,4.50
2018-07-17T23:18:50.573Z,6.00
2018-07-17T23:21:25.965Z,5.57
2018-07-17T23:24:05.089Z,5.14
2018-07-17T23:26:38.986Z,4.71
2018-07-17T23:29:12.518Z,4.00
2018-07-17T23:31:45.975Z,4.00
2018-07-17T23:34:23.047Z,4.40
2018-07-17T23:36:57.449Z,5.00
2018-07-17T23:39:34.501Z,5.00
2018-07-17T23:42:07.545Z,5.00
2018-07-17T23:44:42.732Z,5.00
2018-07-17T23:47:15.207Z,5.80
2018-07-17T23:49:55.401Z,6.29
2018-07-17T23:52:27.542Z,7.00
2018-07-17T23:55:03.426Z,6.14
2018-07-17T23:57:39.031Z,6.00
